CheckWX is a tool to help pilots better visualize weather data.  It is not intended as a substitute for an official pre-flight weather briefing.

02:52:15 UTC

KDOV METAR
Dover AFB Airport
Dover, Delaware, USA
Current

56 mins ago

KDOV 240156Z AUTO 28008KT 10SM CLR 07/M07 A3019 RMK AO2 SLP227 T00671066 $
Observed
Mar-24 @ 01:56 UTC
Wind
  • 280° at 8 KTS
Visibility
10 SM
Flight Rules
VFR
Cloud Levels
  • Clear skies
Temperature
C / 45°F
Dewpoint
-7°C / 19°F
Humidity
37%
Altimeter
30.19" Hg
Pressure
1022.7 hPa
Previous

2 hours ago

KDOV 240056Z AUTO 27007KT 10SM CLR 07/M07 A3018 RMK AO2 SLP223 T00681069 $
Observed
Mar-24 @ 00:56 UTC
Wind
  • 270° at 7 KTS
Visibility
10 SM
Flight Rules
VFR
Cloud Levels
  • Clear skies
Temperature
C / 45°F
Dewpoint
-7°C / 19°F
Humidity
37%
Altimeter
30.18" Hg
Pressure
1022.3 hPa
Previous

3 hours ago

KDOV 232356Z AUTO 27009KT 10SM CLR 09/M07 A3015 RMK AO2 SLP213 T00851073 10116 20085 52029 $
Observed
Mar-23 @ 23:56 UTC
Wind
  • 270° at 9 KTS
Visibility
10 SM
Flight Rules
VFR
Cloud Levels
  • Clear skies
Temperature
C / 48°F
Dewpoint
-7°C / 19°F
Humidity
32%
Altimeter
30.15" Hg
Pressure
1021.3 hPa